sensor_id;sensor_type;location;lat;lon;timestamp;P1;durP1;ratioP1;P2;durP2;ratioP2
20397;SDS011;10358;49.590;11.030;2023-07-29T00:00:37;6.00;;;2.60;;
20397;SDS011;10358;49.590;11.030;2023-07-29T00:03:02;4.25;;;2.50;;
20397;SDS011;10358;49.590;11.030;2023-07-29T00:05:28;5.38;;;2.50;;
20397;SDS011;10358;49.590;11.030;2023-07-29T00:07:53;5.18;;;2.40;;
20397;SDS011;10358;49.590;11.030;2023-07-29T00:10:19;3.13;;;2.30;;
20397;SDS011;10358;49.590;11.030;2023-07-29T00:12:44;3.38;;;2.10;;
20397;SDS011;10358;49.590;11.030;2023-07-29T00:15:10;3.03;;;2.17;;
20397;SDS011;10358;49.590;11.030;2023-07-29T00:17:36;2.45;;;2.25;;
20397;SDS011;10358;49.590;11.030;2023-07-29T00:20:02;4.70;;;2.40;;
20397;SDS011;10358;49.590;11.030;2023-07-29T00:22:28;3.20;;;2.47;;
20397;SDS011;10358;49.590;11.030;2023-07-29T00:24:53;2.83;;;2.20;;
20397;SDS011;10358;49.590;11.030;2023-07-29T00:27:20;9.65;;;2.67;;
20397;SDS011;10358;49.590;11.030;2023-07-29T00:29:46;3.65;;;2.28;;
20397;SDS011;10358;49.590;11.030;2023-07-29T00:32:12;8.95;;;3.10;;
20397;SDS011;10358;49.590;11.030;2023-07-29T00:34:37;4.03;;;2.30;;
20397;SDS011;10358;49.590;11.030;2023-07-29T00:37:03;3.13;;;2.17;;
20397;SDS011;10358;49.590;11.030;2023-07-29T00:39:30;3.63;;;2.30;;
20397;SDS011;10358;49.590;11.030;2023-07-29T00:41:56;3.13;;;2.47;;
20397;SDS011;10358;49.590;11.030;2023-07-29T00:44:22;4.25;;;2.40;;
20397;SDS011;10358;49.590;11.030;2023-07-29T00:46:48;3.10;;;2.33;;
20397;SDS011;10358;49.590;11.030;2023-07-29T00:49:16;4.22;;;2.17;;
20397;SDS011;10358;49.590;11.030;2023-07-29T00:51:43;5.07;;;2.40;;
20397;SDS011;10358;49.590;11.030;2023-07-29T00:54:08;6.43;;;2.60;;
20397;SDS011;10358;49.590;11.030;2023-07-29T00:56:34;4.10;;;2.40;;
20397;SDS011;10358;49.590;11.030;2023-07-29T00:59:00;3.67;;;2.40;;
20397;SDS011;10358;49.590;11.030;2023-07-29T01:01:30;3.58;;;2.60;;
20397;SDS011;10358;49.590;11.030;2023-07-29T01:03:56;6.40;;;2.60;;
20397;SDS011;10358;49.590;11.030;2023-07-29T01:09:14;3.55;;;2.83;;
20397;SDS011;10358;49.590;11.030;2023-07-29T01:14:46;3.40;;;2.40;;
20397;SDS011;10358;49.590;11.030;2023-07-29T01:17:22;4.13;;;2.78;;
20397;SDS011;10358;49.590;11.030;2023-07-29T01:20:01;6.88;;;2.70;;
20397;SDS011;10358;49.590;11.030;2023-07-29T01:22:32;3.72;;;2.75;;
20397;SDS011;10358;49.590;11.030;2023-07-29T01:24:59;7.57;;;3.25;;
20397;SDS011;10358;49.590;11.030;2023-07-29T01:27:25;3.95;;;2.60;;
20397;SDS011;10358;49.590;11.030;2023-07-29T01:29:51;3.25;;;2.47;;
20397;SDS011;10358;49.590;11.030;2023-07-29T01:32:25;3.53;;;2.60;;
20397;SDS011;10358;49.590;11.030;2023-07-29T01:38:28;5.05;;;2.90;;
20397;SDS011;10358;49.590;11.030;2023-07-29T01:40:53;3.92;;;3.17;;
20397;SDS011;10358;49.590;11.030;2023-07-29T01:43:19;4.45;;;2.65;;
20397;SDS011;10358;49.590;11.030;2023-07-29T01:45:48;7.00;;;2.83;;
20397;SDS011;10358;49.590;11.030;2023-07-29T01:48:14;7.13;;;2.78;;
20397;SDS011;10358;49.590;11.030;2023-07-29T01:50:40;5.00;;;2.97;;
20397;SDS011;10358;49.590;11.030;2023-07-29T01:53:05;7.05;;;3.08;;
20397;SDS011;10358;49.590;11.030;2023-07-29T01:55:31;5.28;;;2.78;;
20397;SDS011;10358;49.590;11.030;2023-07-29T01:57:56;4.65;;;3.08;;
20397;SDS011;10358;49.590;11.030;2023-07-29T02:00:23;6.40;;;3.05;;
20397;SDS011;10358;49.590;11.030;2023-07-29T02:02:48;3.13;;;2.63;;
20397;SDS011;10358;49.590;11.030;2023-07-29T02:05:14;4.30;;;3.20;;
20397;SDS011;10358;49.590;11.030;2023-07-29T02:07:40;6.90;;;3.33;;
20397;SDS011;10358;49.590;11.030;2023-07-29T02:10:05;7.28;;;3.15;;
20397;SDS011;10358;49.590;11.030;2023-07-29T02:12:31;6.25;;;3.50;;
20397;SDS011;10358;49.590;11.030;2023-07-29T02:14:57;3.75;;;2.90;;
20397;SDS011;10358;49.590;11.030;2023-07-29T02:17:22;5.13;;;3.20;;
20397;SDS011;10358;49.590;11.030;2023-07-29T02:19:48;4.78;;;3.38;;
20397;SDS011;10358;49.590;11.030;2023-07-29T02:22:14;3.35;;;2.97;;
20397;SDS011;10358;49.590;11.030;2023-07-29T02:24:40;6.22;;;3.10;;
20397;SDS011;10358;49.590;11.030;2023-07-29T02:27:06;4.80;;;3.03;;
20397;SDS011;10358;49.590;11.030;2023-07-29T02:29:32;7.18;;;3.30;;
20397;SDS011;10358;49.590;11.030;2023-07-29T02:31:58;4.95;;;3.42;;
20397;SDS011;10358;49.590;11.030;2023-07-29T02:34:24;4.38;;;3.28;;
20397;SDS011;10358;49.590;11.030;2023-07-29T02:36:50;4.93;;;3.28;;
20397;SDS011;10358;49.590;11.030;2023-07-29T02:39:15;4.93;;;3.03;;
20397;SDS011;10358;49.590;11.030;2023-07-29T02:41:41;4.80;;;3.30;;
20397;SDS011;10358;49.590;11.030;2023-07-29T02:44:06;5.97;;;3.15;;
20397;SDS011;10358;49.590;11.030;2023-07-29T02:46:32;3.40;;;3.08;;
20397;SDS011;10358;49.590;11.030;2023-07-29T02:48:57;7.93;;;4.10;;
20397;SDS011;10358;49.590;11.030;2023-07-29T02:51:23;9.43;;;3.95;;
20397;SDS011;10358;49.590;11.030;2023-07-29T02:53:48;6.90;;;3.50;;
20397;SDS011;10358;49.590;11.030;2023-07-29T02:56:14;5.57;;;3.50;;
20397;SDS011;10358;49.590;11.030;2023-07-29T02:58:39;9.82;;;3.78;;
20397;SDS011;10358;49.590;11.030;2023-07-29T03:01:05;5.93;;;4.13;;
20397;SDS011;10358;49.590;11.030;2023-07-29T03:03:31;6.30;;;3.85;;
20397;SDS011;10358;49.590;11.030;2023-07-29T03:06:01;6.65;;;4.20;;
20397;SDS011;10358;49.590;11.030;2023-07-29T03:08:28;7.75;;;3.90;;
20397;SDS011;10358;49.590;11.030;2023-07-29T03:10:54;6.57;;;3.92;;
20397;SDS011;10358;49.590;11.030;2023-07-29T03:13:20;10.98;;;3.85;;
20397;SDS011;10358;49.590;11.030;2023-07-29T03:15:45;5.38;;;4.15;;
20397;SDS011;10358;49.590;11.030;2023-07-29T03:18:11;7.53;;;4.60;;
20397;SDS011;10358;49.590;11.030;2023-07-29T03:20:36;7.53;;;4.30;;
20397;SDS011;10358;49.590;11.030;2023-07-29T03:23:02;5.32;;;3.92;;
20397;SDS011;10358;49.590;11.030;2023-07-29T03:25:27;5.30;;;3.80;;
20397;SDS011;10358;49.590;11.030;2023-07-29T03:27:53;8.88;;;4.28;;
20397;SDS011;10358;49.590;11.030;2023-07-29T03:30:20;5.47;;;3.80;;
20397;SDS011;10358;49.590;11.030;2023-07-29T03:32:46;10.55;;;3.90;;
20397;SDS011;10358;49.590;11.030;2023-07-29T03:35:13;8.07;;;4.20;;
20397;SDS011;10358;49.590;11.030;2023-07-29T03:37:38;6.05;;;4.10;;
20397;SDS011;10358;49.590;11.030;2023-07-29T03:40:04;7.10;;;3.60;;
20397;SDS011;10358;49.590;11.030;2023-07-29T03:42:31;7.25;;;4.10;;
20397;SDS011;10358;49.590;11.030;2023-07-29T03:44:56;3.97;;;3.35;;
20397;SDS011;10358;49.590;11.030;2023-07-29T03:47:22;6.32;;;4.25;;
20397;SDS011;10358;49.590;11.030;2023-07-29T03:49:47;7.65;;;4.20;;
20397;SDS011;10358;49.590;11.030;2023-07-29T03:52:13;6.90;;;3.85;;
20397;SDS011;10358;49.590;11.030;2023-07-29T03:54:38;6.13;;;3.83;;
20397;SDS011;10358;49.590;11.030;2023-07-29T03:57:04;5.43;;;3.90;;
20397;SDS011;10358;49.590;11.030;2023-07-29T03:59:30;5.78;;;3.90;;
20397;SDS011;10358;49.590;11.030;2023-07-29T04:01:55;9.60;;;3.80;;
20397;SDS011;10358;49.590;11.030;2023-07-29T04:04:21;7.63;;;3.72;;
20397;SDS011;10358;49.590;11.030;2023-07-29T04:06:47;5.72;;;4.00;;
20397;SDS011;10358;49.590;11.030;2023-07-29T04:09:12;4.15;;;3.58;;
20397;SDS011;10358;49.590;11.030;2023-07-29T04:11:38;8.85;;;3.88;;
20397;SDS011;10358;49.590;11.030;2023-07-29T04:14:03;5.95;;;3.45;;
20397;SDS011;10358;49.590;11.030;2023-07-29T04:16:29;6.50;;;3.70;;
20397;SDS011;10358;49.590;11.030;2023-07-29T04:18:54;6.20;;;3.80;;
20397;SDS011;10358;49.590;11.030;2023-07-29T04:21:20;5.35;;;3.78;;
20397;SDS011;10358;49.590;11.030;2023-07-29T04:23:45;4.80;;;3.40;;
20397;SDS011;10358;49.590;11.030;2023-07-29T04:26:11;7.28;;;3.92;;
20397;SDS011;10358;49.590;11.030;2023-07-29T04:28:36;5.30;;;3.60;;
20397;SDS011;10358;49.590;11.030;2023-07-29T04:31:02;6.40;;;3.63;;
20397;SDS011;10358;49.590;11.030;2023-07-29T04:33:29;4.18;;;3.65;;
20397;SDS011;10358;49.590;11.030;2023-07-29T04:35:55;6.63;;;3.40;;
20397;SDS011;10358;49.590;11.030;2023-07-29T04:38:21;4.97;;;3.38;;
20397;SDS011;10358;49.590;11.030;2023-07-29T04:40:48;8.07;;;3.67;;
20397;SDS011;10358;49.590;11.030;2023-07-29T04:43:14;4.68;;;3.70;;
20397;SDS011;10358;49.590;11.030;2023-07-29T04:45:43;4.82;;;3.83;;
20397;SDS011;10358;49.590;11.030;2023-07-29T04:48:09;6.28;;;4.32;;
20397;SDS011;10358;49.590;11.030;2023-07-29T04:50:34;4.90;;;3.83;;
20397;SDS011;10358;49.590;11.030;2023-07-29T04:53:00;5.90;;;4.13;;
20397;SDS011;10358;49.590;11.030;2023-07-29T04:55:25;4.72;;;3.97;;
20397;SDS011;10358;49.590;11.030;2023-07-29T04:57:51;5.78;;;3.72;;
20397;SDS011;10358;49.590;11.030;2023-07-29T05:00:17;5.85;;;3.67;;
20397;SDS011;10358;49.590;11.030;2023-07-29T05:02:42;4.53;;;3.60;;
20397;SDS011;10358;49.590;11.030;2023-07-29T05:05:08;6.30;;;3.40;;
20397;SDS011;10358;49.590;11.030;2023-07-29T05:07:34;5.88;;;3.47;;
20397;SDS011;10358;49.590;11.030;2023-07-29T05:09:59;6.13;;;3.20;;
20397;SDS011;10358;49.590;11.030;2023-07-29T05:12:25;4.63;;;3.45;;
20397;SDS011;10358;49.590;11.030;2023-07-29T05:14:51;5.93;;;3.50;;
20397;SDS011;10358;49.590;11.030;2023-07-29T05:17:16;7.32;;;3.60;;
20397;SDS011;10358;49.590;11.030;2023-07-29T05:19:42;4.90;;;3.40;;
20397;SDS011;10358;49.590;11.030;2023-07-29T05:22:07;6.60;;;3.15;;
20397;SDS011;10358;49.590;11.030;2023-07-29T05:24:33;5.30;;;3.08;;
20397;SDS011;10358;49.590;11.030;2023-07-29T05:26:58;3.83;;;3.15;;
20397;SDS011;10358;49.590;11.030;2023-07-29T05:29:24;6.10;;;3.33;;
20397;SDS011;10358;49.590;11.030;2023-07-29T05:31:49;5.43;;;3.17;;
20397;SDS011;10358;49.590;11.030;2023-07-29T05:34:15;4.18;;;3.25;;
20397;SDS011;10358;49.590;11.030;2023-07-29T05:36:40;6.57;;;3.28;;
20397;SDS011;10358;49.590;11.030;2023-07-29T05:39:06;8.48;;;3.28;;
20397;SDS011;10358;49.590;11.030;2023-07-29T05:41:32;4.07;;;2.97;;
20397;SDS011;10358;49.590;11.030;2023-07-29T05:43:57;4.45;;;3.20;;
20397;SDS011;10358;49.590;11.030;2023-07-29T05:46:23;5.53;;;3.17;;
20397;SDS011;10358;49.590;11.030;2023-07-29T05:48:49;5.28;;;2.95;;
20397;SDS011;10358;49.590;11.030;2023-07-29T05:51:14;5.63;;;2.80;;
20397;SDS011;10358;49.590;11.030;2023-07-29T05:53:40;7.75;;;3.17;;
20397;SDS011;10358;49.590;11.030;2023-07-29T05:56:05;5.40;;;2.60;;
20397;SDS011;10358;49.590;11.030;2023-07-29T05:58:31;3.72;;;2.40;;
20397;SDS011;10358;49.590;11.030;2023-07-29T06:00:57;4.47;;;2.83;;
20397;SDS011;10358;49.590;11.030;2023-07-29T06:03:23;5.47;;;2.25;;
20397;SDS011;10358;49.590;11.030;2023-07-29T06:05:49;3.47;;;2.40;;
20397;SDS011;10358;49.590;11.030;2023-07-29T06:08:16;5.25;;;2.15;;
20397;SDS011;10358;49.590;11.030;2023-07-29T06:10:41;3.08;;;2.20;;
20397;SDS011;10358;49.590;11.030;2023-07-29T06:13:07;3.15;;;1.98;;
20397;SDS011;10358;49.590;11.030;2023-07-29T06:15:33;5.57;;;2.10;;
20397;SDS011;10358;49.590;11.030;2023-07-29T06:17:58;4.85;;;2.30;;
20397;SDS011;10358;49.590;11.030;2023-07-29T06:20:24;3.13;;;2.22;;
20397;SDS011;10358;49.590;11.030;2023-07-29T06:22:49;6.65;;;2.38;;
20397;SDS011;10358;49.590;11.030;2023-07-29T06:25:15;6.70;;;2.45;;
20397;SDS011;10358;49.590;11.030;2023-07-29T06:27:40;11.35;;;2.42;;
20397;SDS011;10358;49.590;11.030;2023-07-29T06:30:06;4.50;;;2.42;;
20397;SDS011;10358;49.590;11.030;2023-07-29T06:32:32;3.15;;;2.22;;
20397;SDS011;10358;49.590;11.030;2023-07-29T06:34:58;3.30;;;2.42;;
20397;SDS011;10358;49.590;11.030;2023-07-29T06:37:24;4.38;;;2.38;;
20397;SDS011;10358;49.590;11.030;2023-07-29T06:39:50;3.10;;;2.05;;
20397;SDS011;10358;49.590;11.030;2023-07-29T06:42:15;3.03;;;2.22;;
20397;SDS011;10358;49.590;11.030;2023-07-29T06:44:41;5.82;;;2.58;;
20397;SDS011;10358;49.590;11.030;2023-07-29T06:47:06;4.13;;;2.20;;
20397;SDS011;10358;49.590;11.030;2023-07-29T06:49:32;4.40;;;2.35;;
20397;SDS011;10358;49.590;11.030;2023-07-29T06:51:57;5.10;;;2.55;;
20397;SDS011;10358;49.590;11.030;2023-07-29T06:54:26;4.80;;;3.03;;
20397;SDS011;10358;49.590;11.030;2023-07-29T06:56:52;6.45;;;3.25;;
20397;SDS011;10358;49.590;11.030;2023-07-29T06:59:17;4.65;;;2.70;;
20397;SDS011;10358;49.590;11.030;2023-07-29T07:01:43;6.05;;;2.83;;
20397;SDS011;10358;49.590;11.030;2023-07-29T07:04:09;4.72;;;2.70;;
20397;SDS011;10358;49.590;11.030;2023-07-29T07:06:34;6.50;;;3.10;;
20397;SDS011;10358;49.590;11.030;2023-07-29T07:09:00;4.03;;;2.95;;
20397;SDS011;10358;49.590;11.030;2023-07-29T07:11:25;6.38;;;2.95;;
20397;SDS011;10358;49.590;11.030;2023-07-29T07:13:51;10.05;;;3.10;;
20397;SDS011;10358;49.590;11.030;2023-07-29T07:16:17;6.70;;;3.00;;
20397;SDS011;10358;49.590;11.030;2023-07-29T07:18:42;7.43;;;3.17;;
20397;SDS011;10358;49.590;11.030;2023-07-29T07:21:08;7.55;;;3.15;;
20397;SDS011;10358;49.590;11.030;2023-07-29T07:23:33;5.22;;;2.92;;
20397;SDS011;10358;49.590;11.030;2023-07-29T07:25:59;7.60;;;3.70;;
20397;SDS011;10358;49.590;11.030;2023-07-29T07:28:25;6.88;;;3.42;;
20397;SDS011;10358;49.590;11.030;2023-07-29T07:30:51;5.43;;;3.20;;
20397;SDS011;10358;49.590;11.030;2023-07-29T07:33:16;9.32;;;3.20;;
20397;SDS011;10358;49.590;11.030;2023-07-29T07:35:42;6.22;;;3.22;;
20397;SDS011;10358;49.590;11.030;2023-07-29T07:38:08;5.65;;;3.38;;
20397;SDS011;10358;49.590;11.030;2023-07-29T07:40:35;6.13;;;3.00;;
20397;SDS011;10358;49.590;11.030;2023-07-29T07:43:01;8.50;;;3.50;;
20397;SDS011;10358;49.590;11.030;2023-07-29T07:45:27;5.40;;;3.00;;
20397;SDS011;10358;49.590;11.030;2023-07-29T07:47:52;4.38;;;2.63;;
20397;SDS011;10358;49.590;11.030;2023-07-29T07:50:18;4.95;;;2.70;;
20397;SDS011;10358;49.590;11.030;2023-07-29T07:52:44;5.25;;;2.80;;
20397;SDS011;10358;49.590;11.030;2023-07-29T07:55:10;6.65;;;3.00;;
20397;SDS011;10358;49.590;11.030;2023-07-29T07:57:35;7.20;;;2.83;;
20397;SDS011;10358;49.590;11.030;2023-07-29T08:00:01;7.78;;;2.50;;
20397;SDS011;10358;49.590;11.030;2023-07-29T08:02:29;7.70;;;2.65;;
20397;SDS011;10358;49.590;11.030;2023-07-29T08:04:54;6.30;;;3.15;;
20397;SDS011;10358;49.590;11.030;2023-07-29T08:07:20;8.73;;;4.63;;
20397;SDS011;10358;49.590;11.030;2023-07-29T08:09:46;5.93;;;2.60;;
20397;SDS011;10358;49.590;11.030;2023-07-29T08:12:11;4.85;;;2.80;;
20397;SDS011;10358;49.590;11.030;2023-07-29T08:14:37;4.63;;;2.50;;
20397;SDS011;10358;49.590;11.030;2023-07-29T08:17:02;5.13;;;2.30;;
20397;SDS011;10358;49.590;11.030;2023-07-29T08:19:28;6.45;;;2.20;;
20397;SDS011;10358;49.590;11.030;2023-07-29T08:21:54;3.15;;;2.05;;
20397;SDS011;10358;49.590;11.030;2023-07-29T08:24:19;4.13;;;2.03;;
20397;SDS011;10358;49.590;11.030;2023-07-29T08:26:45;4.20;;;2.20;;
20397;SDS011;10358;49.590;11.030;2023-07-29T08:29:10;4.53;;;1.92;;
20397;SDS011;10358;49.590;11.030;2023-07-29T08:31:37;6.18;;;2.30;;
20397;SDS011;10358;49.590;11.030;2023-07-29T08:34:02;2.25;;;1.92;;
20397;SDS011;10358;49.590;11.030;2023-07-29T08:36:28;3.70;;;2.15;;
20397;SDS011;10358;49.590;11.030;2023-07-29T08:38:54;2.92;;;2.00;;
20397;SDS011;10358;49.590;11.030;2023-07-29T08:41:21;6.90;;;2.00;;
20397;SDS011;10358;49.590;11.030;2023-07-29T08:43:52;4.35;;;2.30;;
20397;SDS011;10358;49.590;11.030;2023-07-29T08:46:33;4.88;;;2.10;;
20397;SDS011;10358;49.590;11.030;2023-07-29T08:48:59;6.35;;;2.03;;
20397;SDS011;10358;49.590;11.030;2023-07-29T08:51:27;3.00;;;1.90;;
20397;SDS011;10358;49.590;11.030;2023-07-29T08:53:54;3.72;;;2.15;;
20397;SDS011;10358;49.590;11.030;2023-07-29T08:56:20;3.35;;;1.85;;
20397;SDS011;10358;49.590;11.030;2023-07-29T08:58:46;3.08;;;1.90;;
20397;SDS011;10358;49.590;11.030;2023-07-29T09:01:12;4.13;;;1.90;;
20397;SDS011;10358;49.590;11.030;2023-07-29T09:03:38;3.88;;;1.88;;
20397;SDS011;10358;49.590;11.030;2023-07-29T09:06:06;4.35;;;1.90;;
20397;SDS011;10358;49.590;11.030;2023-07-29T09:08:33;6.30;;;2.10;;
20397;SDS011;10358;49.590;11.030;2023-07-29T09:10:59;5.95;;;2.30;;
20397;SDS011;10358;49.590;11.030;2023-07-29T09:13:25;3.90;;;2.17;;
20397;SDS011;10358;49.590;11.030;2023-07-29T09:15:54;4.15;;;2.10;;
20397;SDS011;10358;49.590;11.030;2023-07-29T09:18:26;4.63;;;1.70;;
20397;SDS011;10358;49.590;11.030;2023-07-29T09:20:53;4.97;;;1.60;;
20397;SDS011;10358;49.590;11.030;2023-07-29T09:23:19;3.15;;;1.88;;
20397;SDS011;10358;49.590;11.030;2023-07-29T09:25:47;4.57;;;1.90;;
20397;SDS011;10358;49.590;11.030;2023-07-29T09:28:14;4.28;;;1.92;;
20397;SDS011;10358;49.590;11.030;2023-07-29T09:30:41;4.85;;;1.70;;
20397;SDS011;10358;49.590;11.030;2023-07-29T09:33:11;1.95;;;1.50;;
20397;SDS011;10358;49.590;11.030;2023-07-29T09:38:58;3.53;;;1.40;;
20397;SDS011;10358;49.590;11.030;2023-07-29T09:41:25;2.33;;;1.30;;
20397;SDS011;10358;49.590;11.030;2023-07-29T09:44:01;3.28;;;1.40;;
20397;SDS011;10358;49.590;11.030;2023-07-29T09:46:32;2.50;;;1.45;;
20397;SDS011;10358;49.590;11.030;2023-07-29T09:49:01;3.78;;;1.90;;
20397;SDS011;10358;49.590;11.030;2023-07-29T09:51:28;2.47;;;1.83;;
20397;SDS011;10358;49.590;11.030;2023-07-29T09:53:54;5.53;;;1.92;;
20397;SDS011;10358;49.590;11.030;2023-07-29T09:56:24;6.13;;;1.80;;
20397;SDS011;10358;49.590;11.030;2023-07-29T09:58:51;3.42;;;1.83;;
20397;SDS011;10358;49.590;11.030;2023-07-29T10:01:17;4.28;;;1.65;;
20397;SDS011;10358;49.590;11.030;2023-07-29T10:03:43;4.20;;;1.75;;
20397;SDS011;10358;49.590;11.030;2023-07-29T10:06:09;3.03;;;1.45;;
20397;SDS011;10358;49.590;11.030;2023-07-29T10:08:36;4.70;;;1.60;;
20397;SDS011;10358;49.590;11.030;2023-07-29T10:11:06;6.43;;;1.70;;
20397;SDS011;10358;49.590;11.030;2023-07-29T10:13:32;1.80;;;1.40;;
20397;SDS011;10358;49.590;11.030;2023-07-29T10:15:59;1.83;;;1.40;;
20397;SDS011;10358;49.590;11.030;2023-07-29T10:18:27;3.40;;;1.63;;
20397;SDS011;10358;49.590;11.030;2023-07-29T10:20:54;2.50;;;1.67;;
20397;SDS011;10358;49.590;11.030;2023-07-29T10:23:22;3.92;;;1.70;;
20397;SDS011;10358;49.590;11.030;2023-07-29T10:25:54;4.20;;;1.88;;
20397;SDS011;10358;49.590;11.030;2023-07-29T10:28:31;5.80;;;1.65;;
20397;SDS011;10358;49.590;11.030;2023-07-29T10:30:58;1.95;;;1.50;;
20397;SDS011;10358;49.590;11.030;2023-07-29T10:33:24;3.65;;;2.10;;
20397;SDS011;10358;49.590;11.030;2023-07-29T10:35:50;2.90;;;1.83;;
20397;SDS011;10358;49.590;11.030;2023-07-29T10:38:17;6.10;;;1.58;;
20397;SDS011;10358;49.590;11.030;2023-07-29T10:40:47;2.55;;;1.80;;
20397;SDS011;10358;49.590;11.030;2023-07-29T10:43:24;4.35;;;2.25;;
20397;SDS011;10358;49.590;11.030;2023-07-29T10:45:57;2.67;;;1.77;;
20397;SDS011;10358;49.590;11.030;2023-07-29T10:48:39;3.75;;;1.83;;
20397;SDS011;10358;49.590;11.030;2023-07-29T10:51:22;3.78;;;2.00;;
20397;SDS011;10358;49.590;11.030;2023-07-29T10:53:48;4.97;;;2.00;;
20397;SDS011;10358;49.590;11.030;2023-07-29T10:56:24;4.18;;;2.50;;
20397;SDS011;10358;49.590;11.030;2023-07-29T11:01:41;3.35;;;1.98;;
20397;SDS011;10358;49.590;11.030;2023-07-29T11:10:15;3.58;;;1.73;;
20397;SDS011;10358;49.590;11.030;2023-07-29T11:17:44;3.95;;;1.80;;
20397;SDS011;10358;49.590;11.030;2023-07-29T11:20:12;5.95;;;1.70;;
20397;SDS011;10358;49.590;11.030;2023-07-29T11:22:38;8.77;;;1.70;;
20397;SDS011;10358;49.590;11.030;2023-07-29T11:25:05;3.65;;;1.73;;
20397;SDS011;10358;49.590;11.030;2023-07-29T11:27:32;2.60;;;1.83;;
20397;SDS011;10358;49.590;11.030;2023-07-29T11:29:58;3.67;;;1.73;;
20397;SDS011;10358;49.590;11.030;2023-07-29T11:32:25;3.65;;;2.03;;
20397;SDS011;10358;49.590;11.030;2023-07-29T11:34:51;3.28;;;2.00;;
20397;SDS011;10358;49.590;11.030;2023-07-29T11:37:16;4.03;;;1.80;;
20397;SDS011;10358;49.590;11.030;2023-07-29T11:39:43;2.50;;;1.60;;
20397;SDS011;10358;49.590;11.030;2023-07-29T11:42:14;3.25;;;1.63;;
20397;SDS011;10358;49.590;11.030;2023-07-29T11:44:39;4.93;;;1.70;;
20397;SDS011;10358;49.590;11.030;2023-07-29T11:47:08;4.43;;;1.50;;
20397;SDS011;10358;49.590;11.030;2023-07-29T11:49:35;2.67;;;1.80;;
20397;SDS011;10358;49.590;11.030;2023-07-29T11:52:02;2.58;;;1.73;;
20397;SDS011;10358;49.590;11.030;2023-07-29T11:54:28;1.83;;;1.40;;
20397;SDS011;10358;49.590;11.030;2023-07-29T11:57:00;3.53;;;1.70;;
20397;SDS011;10358;49.590;11.030;2023-07-29T11:59:27;2.00;;;1.60;;
20397;SDS011;10358;49.590;11.030;2023-07-29T12:01:55;4.00;;;1.85;;
20397;SDS011;10358;49.590;11.030;2023-07-29T12:04:21;3.10;;;1.60;;
20397;SDS011;10358;49.590;11.030;2023-07-29T12:06:47;3.45;;;2.03;;
20397;SDS011;10358;49.590;11.030;2023-07-29T12:09:12;4.25;;;2.17;;
20397;SDS011;10358;49.590;11.030;2023-07-29T12:11:38;5.93;;;1.77;;
20397;SDS011;10358;49.590;11.030;2023-07-29T12:14:07;2.40;;;1.55;;
20397;SDS011;10358;49.590;11.030;2023-07-29T12:16:39;4.53;;;2.10;;
20397;SDS011;10358;49.590;11.030;2023-07-29T12:19:08;2.47;;;1.75;;
20397;SDS011;10358;49.590;11.030;2023-07-29T12:21:36;2.22;;;1.80;;
20397;SDS011;10358;49.590;11.030;2023-07-29T12:24:02;4.20;;;1.50;;
20397;SDS011;10358;49.590;11.030;2023-07-29T12:26:29;4.82;;;1.42;;
20397;SDS011;10358;49.590;11.030;2023-07-29T12:28:54;2.03;;;1.52;;
20397;SDS011;10358;49.590;11.030;2023-07-29T12:31:21;2.22;;;1.55;;
20397;SDS011;10358;49.590;11.030;2023-07-29T12:33:55;2.67;;;1.70;;
20397;SDS011;10358;49.590;11.030;2023-07-29T12:36:21;2.22;;;1.55;;
20397;SDS011;10358;49.590;11.030;2023-07-29T12:38:47;1.73;;;1.50;;
20397;SDS011;10358;49.590;11.030;2023-07-29T12:41:12;2.40;;;1.65;;
20397;SDS011;10358;49.590;11.030;2023-07-29T12:43:38;3.92;;;1.48;;
20397;SDS011;10358;49.590;11.030;2023-07-29T12:46:04;3.03;;;1.70;;
20397;SDS011;10358;49.590;11.030;2023-07-29T12:48:29;2.92;;;1.50;;
20397;SDS011;10358;49.590;11.030;2023-07-29T12:50:54;3.53;;;1.50;;
20397;SDS011;10358;49.590;11.030;2023-07-29T12:53:20;1.60;;;1.45;;
20397;SDS011;10358;49.590;11.030;2023-07-29T12:55:46;2.53;;;1.67;;
20397;SDS011;10358;49.590;11.030;2023-07-29T12:58:11;2.50;;;1.40;;
20397;SDS011;10358;49.590;11.030;2023-07-29T13:00:37;12.60;;;1.80;;
20397;SDS011;10358;49.590;11.030;2023-07-29T13:03:03;5.30;;;1.60;;
20397;SDS011;10358;49.590;11.030;2023-07-29T13:05:30;4.95;;;1.70;;
20397;SDS011;10358;49.590;11.030;2023-07-29T13:07:56;4.57;;;1.60;;
20397;SDS011;10358;49.590;11.030;2023-07-29T13:10:21;3.30;;;1.63;;
20397;SDS011;10358;49.590;11.030;2023-07-29T13:12:47;1.90;;;1.40;;
20397;SDS011;10358;49.590;11.030;2023-07-29T13:15:13;4.07;;;1.50;;
20397;SDS011;10358;49.590;11.030;2023-07-29T13:17:39;5.05;;;1.60;;
20397;SDS011;10358;49.590;11.030;2023-07-29T13:20:05;5.75;;;1.80;;
20397;SDS011;10358;49.590;11.030;2023-07-29T13:22:31;2.72;;;1.50;;
20397;SDS011;10358;49.590;11.030;2023-07-29T13:24:57;2.55;;;1.20;;
20397;SDS011;10358;49.590;11.030;2023-07-29T13:27:22;1.90;;;1.42;;
20397;SDS011;10358;49.590;11.030;2023-07-29T13:29:49;1.85;;;1.38;;
20397;SDS011;10358;49.590;11.030;2023-07-29T13:32:14;3.13;;;1.45;;
20397;SDS011;10358;49.590;11.030;2023-07-29T13:34:40;2.47;;;1.50;;
20397;SDS011;10358;49.590;11.030;2023-07-29T13:37:05;3.78;;;1.42;;
20397;SDS011;10358;49.590;11.030;2023-07-29T13:39:31;3.47;;;1.65;;
20397;SDS011;10358;49.590;11.030;2023-07-29T13:41:56;2.80;;;1.50;;
20397;SDS011;10358;49.590;11.030;2023-07-29T13:44:22;4.97;;;1.50;;
20397;SDS011;10358;49.590;11.030;2023-07-29T13:46:47;2.05;;;1.40;;
20397;SDS011;10358;49.590;11.030;2023-07-29T13:49:13;2.72;;;1.40;;
20397;SDS011;10358;49.590;11.030;2023-07-29T13:51:38;2.70;;;1.30;;
20397;SDS011;10358;49.590;11.030;2023-07-29T13:54:04;1.25;;;1.05;;
20397;SDS011;10358;49.590;11.030;2023-07-29T13:56:29;4.10;;;1.40;;
20397;SDS011;10358;49.590;11.030;2023-07-29T13:58:55;5.03;;;1.20;;
20397;SDS011;10358;49.590;11.030;2023-07-29T14:01:21;1.30;;;1.20;;
20397;SDS011;10358;49.590;11.030;2023-07-29T14:03:46;3.25;;;1.23;;
20397;SDS011;10358;49.590;11.030;2023-07-29T14:06:12;1.35;;;1.08;;
20397;SDS011;10358;49.590;11.030;2023-07-29T14:08:38;2.00;;;1.10;;
20397;SDS011;10358;49.590;11.030;2023-07-29T14:11:05;1.42;;;1.10;;
20397;SDS011;10358;49.590;11.030;2023-07-29T14:13:31;1.58;;;1.10;;
20397;SDS011;10358;49.590;11.030;2023-07-29T14:15:56;1.80;;;1.10;;
20397;SDS011;10358;49.590;11.030;2023-07-29T14:18:22;1.95;;;0.95;;
20397;SDS011;10358;49.590;11.030;2023-07-29T14:20:47;1.20;;;1.05;;
20397;SDS011;10358;49.590;11.030;2023-07-29T14:23:14;3.00;;;1.17;;
20397;SDS011;10358;49.590;11.030;2023-07-29T14:25:39;2.50;;;1.25;;
20397;SDS011;10358;49.590;11.030;2023-07-29T14:28:05;2.28;;;1.13;;
20397;SDS011;10358;49.590;11.030;2023-07-29T14:30:31;1.52;;;1.10;;
20397;SDS011;10358;49.590;11.030;2023-07-29T14:32:56;2.35;;;1.20;;
20397;SDS011;10358;49.590;11.030;2023-07-29T14:35:22;1.67;;;1.00;;
20397;SDS011;10358;49.590;11.030;2023-07-29T14:37:47;1.25;;;1.15;;
20397;SDS011;10358;49.590;11.030;2023-07-29T14:40:13;1.95;;;1.20;;
20397;SDS011;10358;49.590;11.030;2023-07-29T14:42:38;1.17;;;1.00;;
20397;SDS011;10358;49.590;11.030;2023-07-29T14:45:04;1.88;;;1.10;;
20397;SDS011;10358;49.590;11.030;2023-07-29T14:47:30;2.72;;;0.98;;
20397;SDS011;10358;49.590;11.030;2023-07-29T14:49:59;1.67;;;0.93;;
20397;SDS011;10358;49.590;11.030;2023-07-29T14:52:27;1.63;;;1.20;;
20397;SDS011;10358;49.590;11.030;2023-07-29T14:54:52;1.10;;;1.00;;